createdAt,value
2023-02-27T00:00:21.618Z,10.90
2023-02-27T00:02:50.257Z,10.55
2023-02-27T00:05:17.620Z,18.58
2023-02-27T00:07:44.112Z,12.75
2023-02-27T00:10:12.362Z,8.18
2023-02-27T00:12:38.735Z,8.63
2023-02-27T00:15:13.529Z,18.08
2023-02-27T00:20:07.952Z,13.82
2023-02-27T00:22:34.271Z,13.05
2023-02-27T00:25:00.590Z,14.75
2023-02-27T00:27:26.909Z,11.45
2023-02-27T00:29:53.221Z,14.55
2023-02-27T00:32:19.641Z,12.52
2023-02-27T00:34:45.972Z,13.27
2023-02-27T00:37:12.292Z,17.73
2023-02-27T00:39:38.601Z,11.95
2023-02-27T00:42:04.988Z,12.18
2023-02-27T00:44:31.300Z,10.60
2023-02-27T00:46:57.613Z,16.88
2023-02-27T00:49:24.064Z,16.70
2023-02-27T00:51:50.355Z,11.68
2023-02-27T00:54:16.740Z,13.25
2023-02-27T00:56:43.051Z,11.95
2023-02-27T00:59:09.364Z,11.68
2023-02-27T01:01:36.667Z,8.88
2023-02-27T01:04:03.285Z,13.73
2023-02-27T01:06:29.645Z,9.40
2023-02-27T01:08:55.999Z,7.45
2023-02-27T01:11:22.491Z,10.85
2023-02-27T01:13:48.888Z,10.25
2023-02-27T01:16:15.306Z,6.80
2023-02-27T01:18:41.632Z,10.68
2023-02-27T01:21:08.056Z,10.35
2023-02-27T01:23:34.393Z,9.20
2023-02-27T01:26:00.716Z,11.80
2023-02-27T01:28:27.203Z,9.93
2023-02-27T01:30:53.538Z,9.40
2023-02-27T01:33:19.953Z,11.35
2023-02-27T01:35:46.262Z,8.05
2023-02-27T01:38:12.611Z,9.65
2023-02-27T01:40:40.856Z,10.20
2023-02-27T01:43:14.109Z,15.35
2023-02-27T01:45:41.982Z,11.80
2023-02-27T01:48:14.166Z,12.48
2023-02-27T01:50:48.370Z,10.48
2023-02-27T01:53:15.165Z,9.65
2023-02-27T01:55:42.650Z,10.77
2023-02-27T01:58:12.329Z,9.13
2023-02-27T02:00:39.330Z,9.70
2023-02-27T02:03:20.075Z,13.65
2023-02-27T02:05:47.049Z,15.45
2023-02-27T02:08:22.883Z,11.70
2023-02-27T02:10:53.308Z,10.30
2023-02-27T02:13:21.392Z,14.00
2023-02-27T02:16:15.838Z,10.32
2023-02-27T02:18:51.246Z,11.18
2023-02-27T02:21:56.105Z,6.55
2023-02-27T02:24:53.101Z,8.50
2023-02-27T02:27:41.243Z,7.43
2023-02-27T02:30:23.652Z,8.00
2023-02-27T02:33:14.327Z,9.93
2023-02-27T02:36:07.447Z,7.32
2023-02-27T02:38:56.948Z,9.95
2023-02-27T02:41:34.134Z,10.57
2023-02-27T02:44:24.180Z,10.45
2023-02-27T02:47:32.243Z,7.53
2023-02-27T02:50:18.845Z,13.70
2023-02-27T02:53:06.898Z,11.70
2023-02-27T02:55:36.508Z,12.00
2023-02-27T02:58:14.317Z,10.27
2023-02-27T03:00:47.541Z,15.07
2023-02-27T03:03:29.049Z,8.85
2023-02-27T03:06:06.828Z,14.25
2023-02-27T03:08:42.720Z,17.50
2023-02-27T03:11:09.486Z,12.15
2023-02-27T03:13:49.720Z,10.50
2023-02-27T03:16:31.485Z,11.52
2023-02-27T03:19:26.415Z,10.15
2023-02-27T03:22:01.965Z,12.02
2023-02-27T03:24:34.398Z,9.27
2023-02-27T03:27:02.272Z,12.57
2023-02-27T03:29:49.842Z,10.65
2023-02-27T03:32:27.430Z,10.43
2023-02-27T03:34:53.758Z,14.63
2023-02-27T03:37:42.289Z,9.43
2023-02-27T03:41:05.631Z,11.05
2023-02-27T03:44:07.661Z,11.65
2023-02-27T03:46:35.228Z,12.30
2023-02-27T03:49:02.011Z,11.02
2023-02-27T03:51:28.943Z,9.05
2023-02-27T03:54:16.798Z,10.32
2023-02-27T03:57:01.137Z,8.27
2023-02-27T03:59:29.012Z,9.43
2023-02-27T04:01:56.868Z,14.20
2023-02-27T04:04:24.848Z,12.57
2023-02-27T04:06:57.384Z,15.32
2023-02-27T04:09:29.549Z,11.52
2023-02-27T04:12:18.032Z,9.82
2023-02-27T04:14:50.393Z,8.80
2023-02-27T04:17:22.861Z,7.82
2023-02-27T04:20:12.609Z,9.55
2023-02-27T04:22:46.835Z,11.13
2023-02-27T04:25:24.798Z,11.93
2023-02-27T04:28:04.399Z,12.57
2023-02-27T04:30:52.748Z,7.43
2023-02-27T04:33:24.394Z,11.90
2023-02-27T04:35:52.298Z,11.27
2023-02-27T04:38:28.133Z,8.23
2023-02-27T04:41:03.953Z,12.82
2023-02-27T04:43:32.579Z,15.02
2023-02-27T04:46:01.382Z,11.02
2023-02-27T04:48:37.162Z,13.40
2023-02-27T04:51:12.316Z,9.77
2023-02-27T04:53:54.622Z,14.73
2023-02-27T04:56:41.040Z,7.13
2023-02-27T04:59:17.104Z,9.73
2023-02-27T05:01:51.247Z,12.98
2023-02-27T05:04:21.697Z,9.25
2023-02-27T05:06:51.588Z,9.57
2023-02-27T05:09:26.540Z,9.27
2023-02-27T05:12:05.400Z,8.73
2023-02-27T05:14:36.833Z,8.70
2023-02-27T05:17:14.858Z,15.95
2023-02-27T05:19:44.228Z,12.70
2023-02-27T05:22:22.424Z,12.20
2023-02-27T05:25:10.803Z,12.65
2023-02-27T05:28:02.623Z,10.55
2023-02-27T05:30:37.905Z,14.02
2023-02-27T05:33:33.079Z,10.82
2023-02-27T05:36:18.231Z,15.40
2023-02-27T05:41:28.687Z,15.82
2023-02-27T05:44:06.333Z,11.68
2023-02-27T05:46:39.203Z,18.02
2023-02-27T05:49:47.537Z,10.30
2023-02-27T05:52:20.199Z,16.08
2023-02-27T05:54:58.825Z,11.52
2023-02-27T05:57:35.570Z,12.60
2023-02-27T06:00:08.649Z,14.20
2023-02-27T06:02:35.101Z,10.93
2023-02-27T06:05:02.103Z,12.60
2023-02-27T06:07:31.806Z,16.40
2023-02-27T06:09:58.529Z,11.98
2023-02-27T06:12:24.821Z,12.25
2023-02-27T06:14:51.126Z,14.82
2023-02-27T06:17:17.893Z,15.27
2023-02-27T06:19:44.385Z,11.63
2023-02-27T06:22:11.236Z,18.20
2023-02-27T06:24:37.693Z,19.55
2023-02-27T06:27:04.001Z,18.55
2023-02-27T06:29:30.409Z,15.57
2023-02-27T06:31:56.870Z,16.42
2023-02-27T06:34:23.186Z,13.55
2023-02-27T06:36:49.488Z,15.15
2023-02-27T06:39:15.842Z,19.88
2023-02-27T06:41:42.195Z,14.52
2023-02-27T06:44:08.522Z,16.38
2023-02-27T06:46:34.864Z,16.45
2023-02-27T06:49:01.185Z,18.73
2023-02-27T06:51:27.550Z,17.23
2023-02-27T06:53:53.852Z,18.95
2023-02-27T06:56:20.186Z,16.80
2023-02-27T06:58:46.611Z,15.88
2023-02-27T07:01:12.956Z,14.75
2023-02-27T07:03:39.276Z,16.73
2023-02-27T07:06:05.983Z,17.55
2023-02-27T07:08:32.292Z,16.17
2023-02-27T07:10:58.743Z,19.13
2023-02-27T07:13:25.065Z,17.40
2023-02-27T07:15:51.412Z,15.50
2023-02-27T07:18:17.873Z,16.90
2023-02-27T07:20:44.168Z,19.60
2023-02-27T07:23:10.469Z,12.65
2023-02-27T07:25:36.758Z,14.57
2023-02-27T07:28:03.157Z,13.98
2023-02-27T07:30:29.470Z,13.98
2023-02-27T07:32:55.833Z,18.55
2023-02-27T07:35:22.113Z,17.77
2023-02-27T07:37:48.411Z,15.32
2023-02-27T07:40:14.735Z,18.85
2023-02-27T07:42:41.049Z,16.15
2023-02-27T07:45:08.029Z,13.30
2023-02-27T07:47:35.096Z,18.95
2023-02-27T07:50:01.424Z,16.58
2023-02-27T07:52:27.728Z,14.38
2023-02-27T07:54:54.039Z,16.75
2023-02-27T07:57:20.375Z,18.80
2023-02-27T07:59:46.754Z,16.30
2023-02-27T08:02:13.080Z,14.25
2023-02-27T08:04:39.524Z,16.38
2023-02-27T08:07:05.880Z,16.83
2023-02-27T08:09:32.523Z,21.75
2023-02-27T08:11:58.817Z,16.75
2023-02-27T08:14:25.195Z,19.48
2023-02-27T08:16:51.501Z,16.48
2023-02-27T08:19:17.803Z,15.80
2023-02-27T08:21:44.128Z,22.13
2023-02-27T08:24:10.437Z,19.75
2023-02-27T08:26:36.741Z,14.13
2023-02-27T08:29:03.173Z,16.50
2023-02-27T08:31:29.512Z,12.82
2023-02-27T08:34:04.481Z,12.48
2023-02-27T08:36:36.185Z,15.50
2023-02-27T08:39:02.592Z,13.57
2023-02-27T08:41:28.916Z,16.45
2023-02-27T08:43:55.290Z,14.20
2023-02-27T08:46:21.609Z,11.57
2023-02-27T08:48:47.920Z,10.85
2023-02-27T08:51:14.241Z,13.20
2023-02-27T08:53:40.619Z,13.35
2023-02-27T08:56:07.045Z,12.27
2023-02-27T08:58:33.414Z,19.38
2023-02-27T09:00:59.851Z,14.77
2023-02-27T09:03:26.173Z,13.50
2023-02-27T09:05:52.465Z,32.50
2023-02-27T09:08:18.790Z,22.13
2023-02-27T09:10:45.077Z,9.40
2023-02-27T09:13:11.366Z,10.13
2023-02-27T09:15:37.684Z,9.73
2023-02-27T09:18:04.674Z,13.95
2023-02-27T09:20:31.322Z,12.18
2023-02-27T09:22:58.308Z,12.88
2023-02-27T09:25:24.994Z,14.32
2023-02-27T09:27:51.397Z,11.85
2023-02-27T09:30:18.028Z,11.63
2023-02-27T09:32:44.387Z,12.80
2023-02-27T09:35:10.782Z,15.27
2023-02-27T09:37:37.104Z,14.88
2023-02-27T09:40:03.754Z,10.05
2023-02-27T09:42:37.854Z,13.48
2023-02-27T09:45:07.302Z,11.93
2023-02-27T09:47:49.234Z,11.55
2023-02-27T09:50:34.102Z,10.15
2023-02-27T09:53:00.633Z,13.98
2023-02-27T09:55:31.483Z,8.13
2023-02-27T09:58:52.007Z,11.93
2023-02-27T10:01:35.748Z,23.77
2023-02-27T10:04:30.329Z,18.48
2023-02-27T10:07:15.395Z,12.17
2023-02-27T10:09:56.531Z,13.55
2023-02-27T10:12:41.740Z,14.02
2023-02-27T10:17:42.022Z,15.02
2023-02-27T10:20:16.805Z,11.35
2023-02-27T10:25:30.416Z,10.98
2023-02-27T10:28:13.038Z,18.50
2023-02-27T10:30:39.549Z,13.43
2023-02-27T10:33:32.565Z,10.50
2023-02-27T10:36:00.735Z,17.63
2023-02-27T10:38:28.201Z,7.28
2023-02-27T10:40:56.545Z,7.30
2023-02-27T10:43:23.128Z,11.27
2023-02-27T10:45:49.471Z,8.98
2023-02-27T10:48:16.283Z,10.23
2023-02-27T10:50:45.459Z,8.25
2023-02-27T10:53:24.465Z,6.57
2023-02-27T10:56:01.606Z,11.25
2023-02-27T10:58:32.527Z,8.55
2023-02-27T11:01:03.545Z,6.32
2023-02-27T11:03:35.240Z,6.45
2023-02-27T11:06:09.130Z,7.03
2023-02-27T11:08:35.899Z,7.67
2023-02-27T11:11:11.045Z,6.13
2023-02-27T11:13:42.973Z,7.03
2023-02-27T11:16:20.413Z,6.90
2023-02-27T11:18:52.218Z,6.72
2023-02-27T11:21:24.890Z,8.63
2023-02-27T11:23:55.674Z,7.40
2023-02-27T11:26:37.937Z,4.05
2023-02-27T11:29:10.064Z,5.47
2023-02-27T11:31:38.261Z,5.53
2023-02-27T11:34:05.789Z,10.88
2023-02-27T11:36:49.534Z,5.10
2023-02-27T11:39:36.832Z,4.63
2023-02-27T11:42:17.363Z,7.93
2023-02-27T11:44:55.491Z,5.63
2023-02-27T11:47:27.901Z,7.22
2023-02-27T11:50:05.281Z,8.73
2023-02-27T11:52:52.917Z,7.80
2023-02-27T11:55:24.607Z,5.95
2023-02-27T11:58:01.300Z,5.25
2023-02-27T12:00:39.562Z,4.75
2023-02-27T12:03:47.109Z,5.82
2023-02-27T12:06:19.519Z,6.32
2023-02-27T12:09:00.485Z,6.18
2023-02-27T12:11:34.146Z,9.63
2023-02-27T12:14:13.830Z,9.63
2023-02-27T12:16:46.058Z,9.10
2023-02-27T12:19:24.349Z,8.60
2023-02-27T12:22:02.603Z,7.32
2023-02-27T12:24:36.509Z,7.10
2023-02-27T12:27:43.881Z,7.50
2023-02-27T12:30:19.366Z,6.97
2023-02-27T12:32:53.821Z,9.40
2023-02-27T12:35:31.889Z,4.78
2023-02-27T12:37:59.402Z,9.88
2023-02-27T12:40:31.433Z,9.07
2023-02-27T12:43:36.210Z,6.55
2023-02-27T12:46:19.701Z,3.90
2023-02-27T12:49:09.097Z,4.65
2023-02-27T12:52:00.992Z,9.52
2023-02-27T12:54:36.482Z,5.97
2023-02-27T12:57:29.909Z,10.15
2023-02-27T13:00:08.885Z,8.02
2023-02-27T13:02:46.931Z,8.18
2023-02-27T13:05:24.593Z,6.85
2023-02-27T13:08:13.597Z,5.35
2023-02-27T13:10:47.911Z,9.55
2023-02-27T13:13:28.115Z,9.32
2023-02-27T13:15:58.586Z,7.57
2023-02-27T13:18:36.790Z,7.75
2023-02-27T13:21:17.002Z,6.65
2023-02-27T13:24:02.841Z,5.00
2023-02-27T13:26:35.698Z,5.93
2023-02-27T13:29:03.108Z,6.18
2023-02-27T13:31:39.924Z,4.65
2023-02-27T13:34:09.365Z,2.65
2023-02-27T13:36:41.253Z,7.78
2023-02-27T13:39:41.531Z,6.15
2023-02-27T13:42:26.185Z,3.80
2023-02-27T13:44:56.925Z,6.50
2023-02-27T13:47:49.499Z,5.60
2023-02-27T13:50:18.913Z,5.25
2023-02-27T13:52:46.084Z,4.68
2023-02-27T13:55:32.330Z,6.85
2023-02-27T13:58:00.998Z,9.50
2023-02-27T14:00:33.984Z,5.63
2023-02-27T14:03:09.109Z,5.13
2023-02-27T14:05:40.310Z,8.15
2023-02-27T14:08:23.218Z,6.70
2023-02-27T14:11:18.990Z,13.00
2023-02-27T14:13:45.318Z,5.95
2023-02-27T14:16:37.457Z,8.65
2023-02-27T14:19:16.068Z,5.72
2023-02-27T14:22:00.633Z,11.23
2023-02-27T14:25:01.694Z,7.70
2023-02-27T14:27:43.734Z,5.72
2023-02-27T14:30:39.628Z,3.47
2023-02-27T14:33:33.350Z,4.88
2023-02-27T14:36:09.754Z,5.70
2023-02-27T14:38:36.781Z,5.78
2023-02-27T14:41:28.409Z,7.78
2023-02-27T14:43:57.521Z,8.20
2023-02-27T14:46:26.187Z,5.53
2023-02-27T14:48:54.538Z,6.95
2023-02-27T14:51:21.898Z,5.25
2023-02-27T14:54:06.401Z,5.65
2023-02-27T14:56:34.132Z,6.70
2023-02-27T14:59:04.939Z,5.20
2023-02-27T15:01:35.799Z,5.07
2023-02-27T15:04:04.630Z,7.95
2023-02-27T15:06:40.697Z,6.47
2023-02-27T15:09:07.503Z,7.93
2023-02-27T15:11:34.172Z,8.43
2023-02-27T15:14:03.169Z,9.18
2023-02-27T15:16:41.070Z,6.80
2023-02-27T15:19:14.738Z,5.38
2023-02-27T15:21:47.096Z,5.72
2023-02-27T15:24:28.557Z,3.83
2023-02-27T15:27:08.118Z,7.00
2023-02-27T15:29:39.379Z,5.60
2023-02-27T15:32:06.974Z,4.32
2023-02-27T15:34:35.619Z,6.93
2023-02-27T15:37:02.282Z,4.57
2023-02-27T15:39:31.601Z,4.97
2023-02-27T15:42:02.757Z,6.28
2023-02-27T15:44:31.719Z,7.22
2023-02-27T15:46:58.452Z,15.25
2023-02-27T15:49:25.580Z,8.52
2023-02-27T15:52:00.681Z,10.27
2023-02-27T15:54:32.073Z,7.13
2023-02-27T15:56:58.616Z,4.95
2023-02-27T15:59:25.675Z,6.93
2023-02-27T16:01:52.605Z,4.88
2023-02-27T16:04:24.194Z,6.88
2023-02-27T16:07:15.370Z,7.47
2023-02-27T16:09:41.917Z,6.72
2023-02-27T16:12:19.904Z,10.73
2023-02-27T16:14:46.265Z,5.22
2023-02-27T16:17:30.019Z,10.38
2023-02-27T16:19:59.807Z,10.05
2023-02-27T16:22:28.014Z,7.15
2023-02-27T16:24:54.317Z,4.85
2023-02-27T16:27:26.545Z,5.72
2023-02-27T16:29:55.893Z,8.27
2023-02-27T16:32:24.501Z,5.25
2023-02-27T16:34:51.791Z,4.90
2023-02-27T16:37:22.068Z,9.65
2023-02-27T16:39:51.677Z,11.88
2023-02-27T16:42:18.308Z,6.30
2023-02-27T16:44:44.599Z,5.95
2023-02-27T16:47:11.008Z,6.25
2023-02-27T16:49:37.384Z,6.90
2023-02-27T16:52:03.837Z,5.85
2023-02-27T16:54:30.154Z,8.70
2023-02-27T16:56:56.517Z,6.85
2023-02-27T16:59:34.029Z,5.35
2023-02-27T17:02:02.568Z,5.03
2023-02-27T17:04:29.760Z,9.88
2023-02-27T17:06:58.786Z,6.13
2023-02-27T17:09:25.576Z,6.75
2023-02-27T17:11:51.874Z,8.88
2023-02-27T17:14:18.273Z,5.00
2023-02-27T17:16:44.656Z,5.53
2023-02-27T17:19:11.033Z,9.25
2023-02-27T17:21:37.534Z,10.27
2023-02-27T17:24:03.934Z,5.88
2023-02-27T17:26:30.303Z,5.38
2023-02-27T17:28:56.906Z,10.27
2023-02-27T17:31:23.566Z,7.53
2023-02-27T17:33:51.426Z,12.90
2023-02-27T17:36:18.377Z,5.72
2023-02-27T17:38:45.420Z,7.70
2023-02-27T17:41:13.622Z,13.15
2023-02-27T17:43:40.714Z,6.38
2023-02-27T17:46:08.847Z,4.63
2023-02-27T17:48:36.614Z,7.63
2023-02-27T17:51:07.219Z,7.57
2023-02-27T17:53:35.063Z,5.55
2023-02-27T17:56:02.180Z,7.22
2023-02-27T17:58:29.013Z,6.45
2023-02-27T18:01:04.247Z,7.55
2023-02-27T18:03:30.613Z,8.50
2023-02-27T18:05:57.040Z,9.85
2023-02-27T18:08:24.969Z,10.88
2023-02-27T18:10:52.042Z,11.80
2023-02-27T18:13:19.631Z,12.05
2023-02-27T18:15:46.241Z,9.90
2023-02-27T18:18:13.402Z,13.85
2023-02-27T18:20:40.182Z,8.35
2023-02-27T18:23:08.009Z,17.10
2023-02-27T18:25:36.000Z,13.93
2023-02-27T18:28:03.294Z,11.85
2023-02-27T18:30:31.177Z,12.40
2023-02-27T18:32:58.858Z,13.98
2023-02-27T18:35:25.734Z,10.63
2023-02-27T18:37:52.688Z,13.63
2023-02-27T18:40:19.162Z,14.38
2023-02-27T18:42:45.463Z,21.02
2023-02-27T18:45:12.620Z,12.20
2023-02-27T18:47:39.075Z,11.68
2023-02-27T18:50:06.052Z,9.90
2023-02-27T18:52:34.525Z,14.88
2023-02-27T18:55:02.760Z,11.63
2023-02-27T18:57:29.610Z,18.17
2023-02-27T18:59:59.251Z,17.20
2023-02-27T19:02:25.599Z,14.75
2023-02-27T19:04:52.388Z,15.93
2023-02-27T19:07:19.342Z,16.02
2023-02-27T19:09:45.726Z,15.85
2023-02-27T19:12:12.068Z,14.55
2023-02-27T19:14:38.870Z,13.50
2023-02-27T19:17:05.760Z,13.77
2023-02-27T19:19:32.413Z,12.50
2023-02-27T19:21:58.873Z,10.10
2023-02-27T19:24:25.328Z,13.30
2023-02-27T19:26:53.425Z,14.20
2023-02-27T19:29:19.992Z,14.88
2023-02-27T19:31:46.553Z,13.93
2023-02-27T19:34:12.962Z,12.55
2023-02-27T19:36:39.296Z,12.52
2023-02-27T19:39:05.652Z,12.75
2023-02-27T19:41:33.511Z,11.32
2023-02-27T19:43:59.995Z,14.27
2023-02-27T19:46:29.586Z,14.15
2023-02-27T19:48:58.722Z,12.30
2023-02-27T19:51:25.216Z,16.85
2023-02-27T19:53:51.525Z,11.75
2023-02-27T19:56:20.568Z,12.77
2023-02-27T19:58:47.366Z,11.10
2023-02-27T20:01:27.426Z,13.07
2023-02-27T20:03:55.753Z,18.83
2023-02-27T20:06:24.667Z,10.88
2023-02-27T20:08:52.321Z,14.60
2023-02-27T20:11:19.187Z,14.15
2023-02-27T20:13:46.808Z,13.57
2023-02-27T20:16:16.009Z,12.02
2023-02-27T20:18:42.821Z,15.98
2023-02-27T20:21:13.789Z,13.88
2023-02-27T20:23:42.055Z,11.93
2023-02-27T20:26:28.519Z,14.35
2023-02-27T20:28:56.659Z,12.40
2023-02-27T20:31:25.262Z,12.50
2023-02-27T20:33:51.925Z,12.20
2023-02-27T20:36:18.308Z,11.50
2023-02-27T20:38:45.191Z,13.60
2023-02-27T20:41:17.934Z,11.32
2023-02-27T20:43:44.827Z,12.45
2023-02-27T20:46:14.498Z,12.70
2023-02-27T20:48:41.324Z,11.18
2023-02-27T20:51:14.130Z,11.80
2023-02-27T20:53:47.867Z,9.30
2023-02-27T20:56:14.942Z,12.18
2023-02-27T20:58:41.613Z,13.40
2023-02-27T21:01:11.897Z,16.98
2023-02-27T21:03:39.712Z,15.35
2023-02-27T21:06:08.761Z,16.73
2023-02-27T21:08:37.015Z,15.68
2023-02-27T21:11:12.232Z,14.18
2023-02-27T21:13:38.855Z,17.05
2023-02-27T21:16:06.774Z,22.23
2023-02-27T21:18:33.970Z,18.35
2023-02-27T21:21:09.515Z,17.13
2023-02-27T21:23:36.941Z,18.40
2023-02-27T21:26:04.613Z,15.60
2023-02-27T21:28:30.948Z,14.35
2023-02-27T21:30:57.291Z,13.10
2023-02-27T21:33:23.697Z,13.32
2023-02-27T21:35:50.110Z,14.95
2023-02-27T21:38:16.436Z,16.92
2023-02-27T21:40:43.233Z,16.33
2023-02-27T21:43:09.642Z,14.15
2023-02-27T21:45:36.952Z,12.10
2023-02-27T21:48:03.294Z,12.77
2023-02-27T21:50:29.745Z,14.07
2023-02-27T21:52:56.097Z,13.95
2023-02-27T21:55:22.428Z,14.98
2023-02-27T21:57:48.746Z,13.73
2023-02-27T22:00:15.356Z,11.80
2023-02-27T22:02:42.710Z,17.60
2023-02-27T22:05:09.224Z,14.07
2023-02-27T22:07:35.575Z,16.77
2023-02-27T22:10:01.864Z,14.73
2023-02-27T22:12:28.213Z,16.33
2023-02-27T22:14:54.533Z,15.38
2023-02-27T22:17:20.836Z,11.45
2023-02-27T22:19:47.140Z,13.40
2023-02-27T22:22:13.452Z,20.10
2023-02-27T22:24:39.762Z,16.27
2023-02-27T22:27:06.081Z,17.67
2023-02-27T22:29:32.407Z,16.75
2023-02-27T22:31:58.743Z,21.48
2023-02-27T22:34:25.060Z,19.25
2023-02-27T22:36:51.413Z,19.45
2023-02-27T22:39:18.294Z,20.35
2023-02-27T22:41:44.945Z,18.52
2023-02-27T22:44:13.756Z,15.75
2023-02-27T22:46:46.097Z,16.42
2023-02-27T22:49:15.293Z,17.10
2023-02-27T22:51:42.057Z,19.45
2023-02-27T22:54:09.301Z,18.85
2023-02-27T22:56:36.137Z,16.42
2023-02-27T22:59:02.633Z,16.13
2023-02-27T23:01:32.193Z,17.30
2023-02-27T23:04:01.329Z,17.77
2023-02-27T23:06:33.479Z,16.42
2023-02-27T23:09:00.612Z,17.10
2023-02-27T23:11:27.369Z,13.88
2023-02-27T23:13:53.819Z,14.85
2023-02-27T23:16:20.514Z,15.30
2023-02-27T23:18:50.452Z,15.20
2023-02-27T23:21:19.365Z,14.98
2023-02-27T23:23:46.353Z,15.88
2023-02-27T23:26:13.309Z,16.40
2023-02-27T23:28:40.036Z,14.38
2023-02-27T23:31:07.883Z,16.10
2023-02-27T23:33:34.363Z,14.27
2023-02-27T23:36:00.987Z,19.33
2023-02-27T23:38:28.285Z,15.95
2023-02-27T23:40:54.726Z,13.35
2023-02-27T23:43:21.933Z,15.43
2023-02-27T23:45:48.319Z,18.02
2023-02-27T23:48:14.681Z,14.38
2023-02-27T23:50:42.893Z,16.60
2023-02-27T23:53:10.088Z,12.40
2023-02-27T23:55:37.646Z,12.10
2023-02-27T23:58:07.382Z,13.27
